createdAt,value
2022-12-18T00:02:13.346Z,20
2022-12-18T00:05:15.297Z,20
2022-12-18T00:08:17.280Z,17.6
2022-12-18T00:11:19.233Z,15.8
2022-12-18T00:14:21.199Z,15.5
2022-12-18T00:17:23.166Z,17.8
2022-12-18T00:20:25.117Z,15.8
2022-12-18T00:23:27.069Z,17.4
2022-12-18T00:26:29.036Z,17
2022-12-18T00:29:30.987Z,18.5
2022-12-18T00:32:32.954Z,14.9
2022-12-18T00:35:34.901Z,15.8
2022-12-18T00:38:36.861Z,17.7
2022-12-18T00:41:38.823Z,16.9
2022-12-18T00:44:40.864Z,16.1
2022-12-18T00:47:42.742Z,14.7
2022-12-18T00:50:44.701Z,16.7
2022-12-18T00:53:46.670Z,18.1
2022-12-18T00:56:49.558Z,15.2
2022-12-18T00:59:50.602Z,15.4
2022-12-18T01:02:52.626Z,15.7
2022-12-18T01:05:54.529Z,17.8
2022-12-18T01:08:56.496Z,14.2
2022-12-18T01:11:58.498Z,17.2
2022-12-18T01:15:00.435Z,14.7
2022-12-18T01:18:02.401Z,15.6
2022-12-18T01:21:04.365Z,14.9
2022-12-18T01:24:06.321Z,15.9
2022-12-18T01:27:08.318Z,16.3
2022-12-18T01:30:10.269Z,16.5
2022-12-18T01:33:12.237Z,17.2
2022-12-18T01:36:14.190Z,16.6
2022-12-18T01:39:16.147Z,16.1
2022-12-18T01:42:18.129Z,15.4
2022-12-18T01:45:20.079Z,15.7
2022-12-18T01:48:22.054Z,15.9
2022-12-18T01:51:24.015Z,16.2
2022-12-18T01:54:25.975Z,15.4
2022-12-18T01:57:27.948Z,17.7
2022-12-18T02:00:29.910Z,13.6
2022-12-18T02:03:31.855Z,15
2022-12-18T02:06:33.845Z,17
2022-12-18T02:09:35.806Z,15.9
2022-12-18T02:12:37.775Z,16.1
2022-12-18T02:15:39.719Z,17.3
2022-12-18T02:18:41.699Z,19.2
2022-12-18T02:21:43.640Z,17.7
2022-12-18T02:24:45.606Z,17.6
2022-12-18T02:27:47.557Z,15.7
2022-12-18T02:30:49.644Z,19
2022-12-18T02:33:51.500Z,17.1
2022-12-18T02:36:53.472Z,14.2
2022-12-18T02:39:55.430Z,18.4
2022-12-18T02:42:57.365Z,17.4
2022-12-18T02:45:59.402Z,19.6
2022-12-18T02:49:01.300Z,18.1
2022-12-18T02:52:03.266Z,18.9
2022-12-18T02:55:05.250Z,16.4
2022-12-18T02:58:07.214Z,18.4
2022-12-18T03:01:09.253Z,17.1
2022-12-18T03:04:11.279Z,16.2
2022-12-18T03:07:13.122Z,18
2022-12-18T03:10:15.073Z,18.6
2022-12-18T03:13:17.029Z,20
2022-12-18T03:16:19.024Z,17.4
2022-12-18T03:19:20.937Z,15.8
2022-12-18T03:22:22.900Z,18.7
2022-12-18T03:25:24.867Z,18.4
2022-12-18T03:28:26.831Z,18.3
2022-12-18T03:31:28.872Z,17.7
2022-12-18T03:34:30.750Z,18.8
2022-12-18T03:37:32.706Z,18.5
2022-12-18T03:40:34.673Z,15.9
2022-12-18T03:43:36.944Z,17.6
2022-12-18T03:46:38.585Z,16.7
2022-12-18T03:49:40.627Z,16.3
2022-12-18T03:52:42.518Z,15.8
2022-12-18T03:55:44.483Z,16.6
2022-12-18T03:58:46.452Z,15.1
2022-12-18T04:01:48.538Z,16
2022-12-18T04:04:50.384Z,18.6
2022-12-18T04:07:52.335Z,15.9
2022-12-18T04:10:54.322Z,16.3
2022-12-18T04:13:56.284Z,15.8
2022-12-18T04:16:58.241Z,17.4
2022-12-18T04:20:00.244Z,13.3
2022-12-18T04:23:02.193Z,16.3
2022-12-18T04:26:04.160Z,16.1
2022-12-18T04:29:06.112Z,17.3
2022-12-18T04:32:08.090Z,16
2022-12-18T04:35:10.042Z,15.8
2022-12-18T04:38:12.010Z,15.3
2022-12-18T04:41:13.958Z,17.9
2022-12-18T04:44:15.929Z,16.6
2022-12-18T04:47:17.895Z,16.7
2022-12-18T04:50:19.880Z,17.4
2022-12-18T04:53:22.010Z,16.2
2022-12-18T04:56:23.774Z,16.2
2022-12-18T04:59:25.736Z,14.5
2022-12-18T05:02:27.741Z,14.1
2022-12-18T05:05:29.662Z,16
2022-12-18T05:08:31.753Z,15.5
2022-12-18T05:11:33.610Z,12.2
2022-12-18T05:14:35.575Z,16.7
2022-12-18T05:17:37.526Z,16
2022-12-18T05:20:39.491Z,15.1
2022-12-18T05:23:41.677Z,16.3
2022-12-18T05:26:43.438Z,16.8
2022-12-18T05:29:45.376Z,17.3
2022-12-18T05:32:47.367Z,16.8
2022-12-18T05:35:49.302Z,13.9
2022-12-18T05:38:51.280Z,16.3
2022-12-18T05:41:53.244Z,16.4
2022-12-18T05:44:55.247Z,15.8
2022-12-18T05:47:57.181Z,14.8
2022-12-18T05:50:59.147Z,16.3
2022-12-18T05:54:01.106Z,16
2022-12-18T05:57:03.095Z,12.2
2022-12-18T06:00:05.023Z,16.4
2022-12-18T06:03:07.082Z,14.6
2022-12-18T06:06:08.955Z,15.1
2022-12-18T06:09:10.942Z,16.2
2022-12-18T06:12:12.878Z,15.7
2022-12-18T06:15:14.874Z,13.6
2022-12-18T06:18:16.807Z,15.7
2022-12-18T06:21:18.788Z,14.7
2022-12-18T06:24:20.744Z,16.3
2022-12-18T06:27:22.712Z,16.3
2022-12-18T06:30:24.659Z,15.4
2022-12-18T06:33:26.617Z,16.2
2022-12-18T06:36:28.573Z,14.1
2022-12-18T06:39:30.535Z,13.5
2022-12-18T06:42:32.488Z,15.3
2022-12-18T06:45:34.497Z,16.9
2022-12-18T06:48:36.473Z,15.8
2022-12-18T06:51:38.404Z,16.5
2022-12-18T06:54:40.363Z,16.1
2022-12-18T06:57:42.344Z,15.2
2022-12-18T07:00:44.343Z,15.8
2022-12-18T07:03:46.356Z,14.9
2022-12-18T07:06:48.248Z,15.2
2022-12-18T07:09:50.235Z,15.2
2022-12-18T07:12:52.165Z,15.3
2022-12-18T07:15:54.123Z,15.4
2022-12-18T07:18:56.081Z,14.7
2022-12-18T07:21:58.034Z,16.3
2022-12-18T07:24:59.990Z,14.6
2022-12-18T07:28:01.957Z,14.4
2022-12-18T07:31:03.930Z,15.1
2022-12-18T07:34:05.897Z,14.9
2022-12-18T07:37:07.861Z,16.9
2022-12-18T07:40:09.844Z,16
2022-12-18T07:43:11.820Z,15.8
2022-12-18T07:46:13.817Z,14.8
2022-12-18T07:49:15.779Z,17.5
2022-12-18T07:52:20.294Z,15.2
2022-12-18T07:55:19.651Z,16.1
2022-12-18T07:58:21.633Z,14.7
2022-12-18T08:01:23.712Z,15.1
2022-12-18T08:04:25.589Z,16.4
2022-12-18T08:07:27.521Z,16.1
2022-12-18T08:10:29.472Z,17.6
2022-12-18T08:13:31.446Z,15.2
2022-12-18T08:16:33.415Z,16.7
2022-12-18T08:19:35.332Z,17.1
2022-12-18T08:22:37.298Z,16.5
2022-12-18T08:25:39.260Z,15.5
2022-12-18T08:28:41.218Z,16.1
2022-12-18T08:31:43.256Z,14.5
2022-12-18T08:34:45.177Z,16.3
2022-12-18T08:37:47.122Z,15.3
2022-12-18T08:40:49.202Z,16.1
2022-12-18T08:43:51.171Z,17.7
2022-12-18T08:46:53.140Z,17.4
2022-12-18T08:49:55.096Z,15.4
2022-12-18T08:52:57.057Z,17.3
2022-12-18T08:55:59.076Z,17.5
2022-12-18T08:59:01.052Z,16.7
2022-12-18T09:02:03.267Z,17.8
2022-12-18T09:05:04.985Z,19.8
2022-12-18T09:08:06.945Z,19.2
2022-12-18T09:11:08.899Z,19
2022-12-18T09:14:10.857Z,16.4
2022-12-18T09:17:12.845Z,18
2022-12-18T09:20:14.793Z,18
2022-12-18T09:23:16.846Z,19.7
2022-12-18T09:26:18.722Z,21.8
2022-12-18T09:29:20.666Z,21.4
2022-12-18T09:32:22.753Z,20.7
2022-12-18T09:35:24.582Z,21.4
2022-12-18T09:38:26.579Z,21.2
2022-12-18T09:41:28.521Z,21.2
2022-12-18T09:44:30.547Z,19.7
2022-12-18T09:47:32.484Z,21.2
2022-12-18T09:50:34.414Z,22.2
2022-12-18T09:53:36.384Z,20.8
2022-12-18T09:56:38.360Z,21.1
2022-12-18T09:59:40.487Z,18.7
2022-12-18T10:02:42.455Z,21.2
2022-12-18T10:05:44.249Z,22.1
2022-12-18T10:08:46.233Z,20.8
2022-12-18T10:11:48.192Z,23.6
2022-12-18T10:14:50.148Z,23.2
2022-12-18T10:17:52.323Z,21.3
2022-12-18T10:20:54.079Z,21.4
2022-12-18T10:23:56.035Z,21.5
2022-12-18T10:26:57.983Z,22
2022-12-18T10:29:59.957Z,21.3
2022-12-18T10:33:01.907Z,20.6
2022-12-18T10:36:03.876Z,19.5
2022-12-18T10:39:05.811Z,20
2022-12-18T10:42:07.791Z,21.2
2022-12-18T10:45:09.836Z,21.1
2022-12-18T10:48:11.741Z,21.6
2022-12-18T10:51:13.983Z,21.4
2022-12-18T10:54:15.660Z,23.2
2022-12-18T10:57:17.625Z,20.9
2022-12-18T11:00:19.578Z,20
2022-12-18T11:03:21.593Z,23.9
2022-12-18T11:06:23.525Z,22.5
2022-12-18T11:09:25.473Z,20.9
2022-12-18T11:12:27.437Z,20.9
2022-12-18T11:15:29.402Z,21.7
2022-12-18T11:18:31.371Z,21.9
2022-12-18T11:21:33.357Z,19.8
2022-12-18T11:24:35.313Z,20.2
2022-12-18T11:27:37.275Z,22.5
2022-12-18T11:30:39.250Z,22.8
2022-12-18T11:33:49.477Z,22.6
2022-12-18T11:36:43.159Z,20.4
2022-12-18T11:39:45.109Z,21.1
2022-12-18T11:42:47.082Z,21.5
2022-12-18T11:45:49.037Z,22.2
2022-12-18T11:48:50.995Z,22.8
2022-12-18T11:51:52.976Z,23.3
2022-12-18T11:54:54.910Z,21.7
2022-12-18T11:57:56.877Z,22.6
2022-12-18T12:00:58.829Z,24.6
2022-12-18T12:04:00.877Z,24
2022-12-18T12:07:03.202Z,23.9
2022-12-18T12:10:04.720Z,23
2022-12-18T12:13:06.664Z,21.9
2022-12-18T12:16:08.639Z,19
2022-12-18T12:19:10.581Z,22.2
2022-12-18T12:22:12.539Z,20.5
2022-12-18T12:25:14.500Z,21.1
2022-12-18T12:28:16.535Z,21.6
2022-12-18T12:31:18.453Z,22.8
2022-12-18T12:34:20.394Z,22.8
2022-12-18T12:37:22.322Z,18.6
2022-12-18T12:40:49.030Z,20.2
2022-12-18T12:43:26.278Z,21
2022-12-18T12:46:28.212Z,23.9
2022-12-18T12:49:30.194Z,19.7
2022-12-18T12:52:32.131Z,22
2022-12-18T12:55:34.107Z,21.7
2022-12-18T12:58:36.054Z,21
2022-12-18T13:01:38.115Z,20.5
2022-12-18T13:04:39.966Z,19.6
2022-12-18T13:07:41.937Z,22
2022-12-18T13:10:43.886Z,21.8
2022-12-18T13:13:46.082Z,21.7
2022-12-18T13:16:47.792Z,23.6
2022-12-18T13:19:49.770Z,20.9
2022-12-18T13:22:51.726Z,22.2
2022-12-18T13:25:53.705Z,20.8
2022-12-18T13:28:55.641Z,22.3
2022-12-18T13:31:57.608Z,20.6
2022-12-18T13:34:59.561Z,22.4
2022-12-18T13:38:01.558Z,20.3
2022-12-18T13:41:03.497Z,21.6
2022-12-18T13:44:05.454Z,19.9
2022-12-18T13:47:07.429Z,23.3
2022-12-18T13:50:09.432Z,20.5
2022-12-18T13:53:11.346Z,20.2
2022-12-18T13:56:13.330Z,21.5
2022-12-18T13:59:15.287Z,20.1
2022-12-18T14:02:17.479Z,22.2
2022-12-18T14:05:19.217Z,21.8
2022-12-18T14:08:21.184Z,23.1
2022-12-18T14:11:23.128Z,21.3
2022-12-18T14:14:28.128Z,21.4
2022-12-18T14:17:27.060Z,21.8
2022-12-18T14:20:29.039Z,21.3
2022-12-18T14:23:30.968Z,18
2022-12-18T14:26:32.930Z,19.5
2022-12-18T14:29:34.880Z,20.1
2022-12-18T14:32:36.850Z,20.9
2022-12-18T14:35:38.819Z,17.4
2022-12-18T14:38:40.763Z,20.8
2022-12-18T14:41:42.731Z,19.4
2022-12-18T14:45:12.739Z,19.7
2022-12-18T14:47:46.692Z,21.6
2022-12-18T14:50:48.611Z,20.7
2022-12-18T14:53:53.891Z,20.6
2022-12-18T14:56:52.496Z,21
2022-12-18T14:59:54.472Z,18.2
2022-12-18T15:02:56.552Z,20.7
2022-12-18T15:05:58.390Z,18.5
2022-12-18T15:09:00.343Z,18.7
2022-12-18T15:12:02.306Z,22.2
2022-12-18T15:15:04.281Z,19.9
2022-12-18T15:18:06.228Z,20.5
2022-12-18T15:21:08.218Z,23
2022-12-18T15:24:10.154Z,20.2
2022-12-18T15:27:12.113Z,20.9
2022-12-18T15:30:14.101Z,21
2022-12-18T15:33:16.047Z,19.4
2022-12-18T15:36:18.058Z,19.1
2022-12-18T15:39:19.971Z,21.5
2022-12-18T15:42:21.929Z,18.6
2022-12-18T15:45:23.881Z,21.1
2022-12-18T15:48:25.832Z,21.8
2022-12-18T15:51:27.781Z,23
2022-12-18T15:54:29.745Z,20.7
2022-12-18T15:57:31.708Z,17.9
2022-12-18T16:00:33.664Z,20.4
2022-12-18T16:03:35.651Z,22
2022-12-18T16:06:58.015Z,22.4
2022-12-18T16:09:39.560Z,18.6
2022-12-18T16:12:41.510Z,20.1
2022-12-18T16:15:43.516Z,22.3
2022-12-18T16:18:45.437Z,21.9
2022-12-18T16:21:47.385Z,24.7
2022-12-18T16:24:49.345Z,21.8
2022-12-18T16:27:51.307Z,21.7
2022-12-18T16:30:53.307Z,22.8
2022-12-18T16:33:55.228Z,22.2
2022-12-18T16:37:01.662Z,22.4
2022-12-18T16:39:59.187Z,21.7
2022-12-18T16:43:01.122Z,18.8
2022-12-18T16:46:03.097Z,20.4
2022-12-18T16:49:05.009Z,24.3
2022-12-18T16:52:06.985Z,25.4
2022-12-18T16:55:08.976Z,24.2
2022-12-18T16:58:10.910Z,21.9
2022-12-18T17:01:12.917Z,22
2022-12-18T17:04:14.823Z,23.1
2022-12-18T17:07:16.779Z,20.1
2022-12-18T17:10:18.761Z,20.5
2022-12-18T17:13:25.506Z,18.5
2022-12-18T17:16:22.677Z,20.3
2022-12-18T17:19:24.646Z,18.2
2022-12-18T17:22:26.661Z,21.7
2022-12-18T17:25:28.542Z,22.6
2022-12-18T17:28:30.490Z,18.3
2022-12-18T17:31:32.502Z,17.9
2022-12-18T17:34:34.402Z,18.8
2022-12-18T17:37:36.377Z,18.8
2022-12-18T17:40:40.682Z,21.5
2022-12-18T17:43:40.585Z,19.3
2022-12-18T17:46:42.325Z,18.4
2022-12-18T17:49:44.210Z,16.8
2022-12-18T17:52:46.167Z,16.7
2022-12-18T17:55:48.152Z,19.4
2022-12-18T17:58:50.097Z,17.7
2022-12-18T18:01:52.393Z,17.7
2022-12-18T18:04:54.021Z,20.8
2022-12-18T18:07:56.022Z,22.4
2022-12-18T18:10:57.990Z,19.7
2022-12-18T18:13:59.930Z,17.7
2022-12-18T18:17:04.580Z,22.5
2022-12-18T18:20:03.864Z,19.7
2022-12-18T18:23:05.808Z,19.8
2022-12-18T18:26:08.007Z,16.3
2022-12-18T18:29:09.728Z,17.4
2022-12-18T18:32:11.696Z,17.7
2022-12-18T18:35:30.851Z,19.7
2022-12-18T18:38:15.614Z,18.1
2022-12-18T18:41:17.568Z,19.1
2022-12-18T18:44:19.533Z,19.3
2022-12-18T18:47:21.496Z,21.6
2022-12-18T18:50:23.561Z,17.3
2022-12-18T18:53:25.440Z,15.9
2022-12-18T18:59:30.428Z,16.9
2022-12-18T19:02:31.417Z,17.9
2022-12-18T19:05:33.276Z,19.1
2022-12-18T19:08:35.232Z,20.4
2022-12-18T19:11:37.187Z,17.3
2022-12-18T19:14:39.152Z,17.1
2022-12-18T19:17:41.091Z,17.6
2022-12-18T19:20:43.075Z,15.2
2022-12-18T19:23:45.033Z,15.1
2022-12-18T19:26:46.976Z,18.5
2022-12-18T19:29:49.013Z,17.1
2022-12-18T19:32:50.968Z,18.3
2022-12-18T19:35:52.922Z,19.5
2022-12-18T19:38:54.905Z,19.4
2022-12-18T19:41:56.862Z,19.8
2022-12-18T19:44:58.805Z,15.7
2022-12-18T19:48:04.184Z,19
2022-12-18T19:51:02.779Z,16.6
2022-12-18T19:54:04.737Z,20.9
2022-12-18T19:57:06.664Z,18.3
2022-12-18T20:00:09.471Z,21.7
2022-12-18T20:03:21.459Z,19.6
2022-12-18T20:06:12.578Z,18.1
2022-12-18T20:09:14.622Z,19.3
2022-12-18T20:12:16.495Z,18.5
2022-12-18T20:15:18.456Z,20.4
2022-12-18T20:18:20.420Z,20.5
2022-12-18T20:21:22.394Z,20
2022-12-18T20:24:24.376Z,17.8
2022-12-18T20:27:26.328Z,20.4
2022-12-18T20:30:28.299Z,20.2
2022-12-18T20:33:30.258Z,20.7
2022-12-18T20:36:33.007Z,20.7
2022-12-18T20:39:34.265Z,17.9
2022-12-18T20:42:36.231Z,19.7
2022-12-18T20:45:38.226Z,17.1
2022-12-18T20:48:40.142Z,19.6
2022-12-18T20:51:42.077Z,18.8
2022-12-18T20:54:44.048Z,17.5
2022-12-18T20:57:46.017Z,23.3
2022-12-18T21:00:48.044Z,20.6
2022-12-18T21:03:49.976Z,21.2
2022-12-18T21:06:54.410Z,21
2022-12-18T21:09:53.861Z,19.3
2022-12-18T21:12:56.176Z,19.5
2022-12-18T21:15:57.806Z,23.3
2022-12-18T21:18:59.761Z,20.4
2022-12-18T21:22:01.721Z,21.2
2022-12-18T21:25:03.686Z,20.2
2022-12-18T21:28:05.649Z,22.4
2022-12-18T21:31:07.649Z,21.7
2022-12-18T21:34:09.574Z,23.3
2022-12-18T21:37:11.541Z,21.5
2022-12-18T21:40:13.512Z,22.4
2022-12-18T21:43:16.677Z,19.7
2022-12-18T21:46:17.491Z,21.3
2022-12-18T21:49:19.468Z,20.2
2022-12-18T21:52:21.612Z,22.8
2022-12-18T21:55:23.354Z,20.2
2022-12-18T21:58:25.327Z,20.6
2022-12-18T22:01:31.408Z,19.2
2022-12-18T22:04:29.241Z,22.4
2022-12-18T22:07:31.192Z,22.9
2022-12-18T22:10:33.240Z,21.6
2022-12-18T22:13:35.192Z,21
2022-12-18T22:16:37.134Z,20.9
2022-12-18T22:19:42.969Z,18.6
2022-12-18T22:22:41.060Z,19.5
2022-12-18T22:25:43.024Z,22.8
2022-12-18T22:28:44.991Z,21.2
2022-12-18T22:31:47.011Z,21.4
2022-12-18T22:34:48.923Z,19.7
2022-12-18T22:37:50.874Z,19.4
2022-12-18T22:40:52.829Z,19.7
2022-12-18T22:43:54.795Z,20.9
2022-12-18T22:47:04.434Z,17.5
2022-12-18T22:49:58.720Z,19.1
2022-12-18T22:53:00.692Z,19.8
2022-12-18T22:56:02.648Z,19.9
2022-12-18T22:59:04.608Z,22.9
2022-12-18T23:02:06.622Z,21.7
2022-12-18T23:05:08.535Z,20.4
2022-12-18T23:08:10.468Z,22.6
2022-12-18T23:11:12.451Z,20.5
2022-12-18T23:14:14.395Z,21.5
2022-12-18T23:17:16.363Z,20.3
2022-12-18T23:20:18.336Z,19.3
2022-12-18T23:23:20.278Z,22.7
2022-12-18T23:26:22.767Z,21
2022-12-18T23:29:24.230Z,18.3
2022-12-18T23:32:26.188Z,19.2
2022-12-18T23:35:28.167Z,19.7
2022-12-18T23:38:30.117Z,19.7
2022-12-18T23:41:32.086Z,20
2022-12-18T23:44:34.042Z,20.4
2022-12-18T23:47:36.068Z,18.3
2022-12-18T23:50:37.957Z,18.6
2022-12-18T23:53:39.954Z,22.5
2022-12-18T23:56:41.895Z,20.4
2022-12-18T23:59:43.894Z,20.6
